createdAt,value
2023-01-11T00:03:27.464Z,100944.58
2023-01-11T00:08:22.132Z,100945.46
2023-01-11T00:13:15.427Z,100950.23
2023-01-11T00:18:09.050Z,100943.16
2023-01-11T00:23:01.824Z,100944.14
2023-01-11T00:27:55.647Z,100949.23
2023-01-11T00:32:48.391Z,100949.65
2023-01-11T00:37:41.739Z,100948.50
2023-01-11T00:42:52.320Z,100967.98
2023-01-11T00:48:01.853Z,100971.05
2023-01-11T00:52:54.634Z,100965.42
2023-01-11T00:57:47.435Z,100968.58
2023-01-11T01:02:40.312Z,100974.92
2023-01-11T01:07:33.111Z,100983.92
2023-01-11T01:12:39.846Z,100985.98
2023-01-11T01:17:32.709Z,100986.98
2023-01-11T01:22:25.498Z,100983.88
2023-01-11T01:27:20.067Z,100983.11
2023-01-11T01:32:13.325Z,100985.52
2023-01-11T01:37:08.450Z,100986.52
2023-01-11T01:42:01.378Z,100993.52
2023-01-11T01:46:54.166Z,100988.95
2023-01-11T01:51:58.766Z,100990.20
2023-01-11T01:56:55.827Z,100991.96
2023-01-11T02:01:50.716Z,100997.20
2023-01-11T02:06:44.399Z,100993.83
2023-01-11T02:11:43.343Z,100997.23
2023-01-11T02:16:36.428Z,100993.79
2023-01-11T02:21:41.533Z,100991.98
2023-01-11T02:27:19.487Z,100988.52
2023-01-11T02:32:22.550Z,100987.77
2023-01-11T02:37:38.535Z,100985.77
2023-01-11T02:43:08.814Z,100989.56
2023-01-11T02:48:20.179Z,100995.45
2023-01-11T02:53:25.058Z,100994.66
2023-01-11T02:58:21.127Z,100994.55
2023-01-11T03:03:22.002Z,101001.98
2023-01-11T03:08:40.678Z,101002.58
2023-01-11T03:14:05.259Z,100999.34
2023-01-11T03:19:01.031Z,100988.38
2023-01-11T03:24:21.422Z,100982.93
2023-01-11T03:29:26.855Z,100985.11
2023-01-11T03:34:58.266Z,100986.22
2023-01-11T03:40:04.233Z,100984.69
2023-01-11T03:44:59.258Z,100978.60
2023-01-11T03:50:08.859Z,100973.27
2023-01-11T03:55:05.540Z,100969.48
2023-01-11T03:59:58.631Z,100973.83
2023-01-11T04:04:51.699Z,100981.81
2023-01-11T04:09:44.420Z,100977.17
2023-01-11T04:14:37.445Z,100982.36
2023-01-11T04:19:30.360Z,100980.23
2023-01-11T04:24:23.213Z,100978.48
2023-01-11T04:29:15.954Z,100974.61
2023-01-11T04:34:08.766Z,100974.73
2023-01-11T04:39:02.031Z,100974.94
2023-01-11T04:43:56.881Z,100965.68
2023-01-11T04:48:49.651Z,100967.79
2023-01-11T04:53:42.406Z,100967.23
2023-01-11T04:58:38.309Z,100966.16
2023-01-11T05:03:32.360Z,100971.35
2023-01-11T05:08:27.238Z,100969.86
2023-01-11T05:13:20.124Z,100977.74
2023-01-11T05:18:12.955Z,100979.05
2023-01-11T05:23:05.993Z,100978.84
2023-01-11T05:27:58.767Z,100982.89
2023-01-11T05:32:51.895Z,100986.98
2023-01-11T05:37:44.706Z,100986.00
2023-01-11T05:42:37.556Z,100975.02
2023-01-11T05:47:30.370Z,100972.34
2023-01-11T05:52:23.155Z,100968.38
2023-01-11T05:57:15.958Z,100966.44
2023-01-11T06:02:08.881Z,100966.02
2023-01-11T06:07:01.776Z,100962.92
2023-01-11T06:11:54.625Z,100961.73
2023-01-11T06:16:47.525Z,100958.44
2023-01-11T06:21:40.579Z,100956.48
2023-01-11T06:26:34.507Z,100950.66
2023-01-11T06:31:27.583Z,100950.14
2023-01-11T06:36:20.439Z,100959.34
2023-01-11T06:41:14.077Z,100966.39
2023-01-11T06:46:10.821Z,100966.24
2023-01-11T06:51:03.747Z,100964.02
2023-01-11T06:55:58.784Z,100963.58
2023-01-11T07:00:53.349Z,100957.83
2023-01-11T07:05:46.322Z,100952.45
2023-01-11T07:10:39.779Z,100958.54
2023-01-11T07:15:32.712Z,100964.61
2023-01-11T07:20:26.657Z,100963.48
2023-01-11T07:25:20.117Z,100966.64
2023-01-11T07:30:13.467Z,100966.23
2023-01-11T07:35:06.740Z,100965.75
2023-01-11T07:39:59.848Z,100960.71
2023-01-11T07:44:52.635Z,100960.92
2023-01-11T07:49:45.467Z,100966.65
2023-01-11T07:54:38.257Z,100960.75
2023-01-11T07:59:31.621Z,100961.09
2023-01-11T08:04:24.438Z,100965.95
2023-01-11T08:09:17.244Z,100970.55
2023-01-11T08:14:29.530Z,100964.98
2023-01-11T08:19:22.354Z,100961.69
2023-01-11T08:24:15.318Z,100960.01
2023-01-11T08:29:08.118Z,100963.11
2023-01-11T08:34:00.904Z,100961.35
2023-01-11T08:39:00.201Z,100958.30
2023-01-11T08:43:53.380Z,100953.98
2023-01-11T08:48:47.904Z,100948.59
2023-01-11T08:53:43.104Z,100954.28
2023-01-11T08:58:36.836Z,100953.71
2023-01-11T09:03:34.531Z,100955.45
2023-01-11T09:08:29.955Z,100951.54
2023-01-11T09:13:23.051Z,100946.50
2023-01-11T09:18:30.909Z,100941.51
2023-01-11T09:23:23.670Z,100932.88
2023-01-11T09:28:21.441Z,100921.29
2023-01-11T09:33:17.179Z,100914.39
2023-01-11T09:38:10.079Z,100909.80
2023-01-11T09:43:07.413Z,100911.58
2023-01-11T09:48:12.893Z,100915.31
2023-01-11T09:53:09.833Z,100911.35
2023-01-11T09:58:06.892Z,100911.02
2023-01-11T10:03:33.135Z,100896.20
2023-01-11T10:18:33.080Z,100886.91
2023-01-11T10:20:17.738Z,100887.60
2023-01-11T10:25:26.064Z,100884.12
2023-01-11T10:30:41.937Z,100886.83
2023-01-11T10:35:59.194Z,100875.80
2023-01-11T10:41:06.797Z,100877.42
2023-01-11T10:51:42.573Z,100869.88
2023-01-11T10:57:05.219Z,100866.58
2023-01-11T11:02:01.760Z,100867.88
2023-01-11T11:07:15.437Z,100867.63
2023-01-11T11:12:38.870Z,100859.84
2023-01-11T11:17:38.459Z,100846.48
2023-01-11T11:22:31.220Z,100837.02
2023-01-11T11:27:36.756Z,100824.52
2023-01-11T11:32:37.214Z,100814.15
2023-01-11T11:37:36.706Z,100805.94
2023-01-11T11:42:31.519Z,100790.86
2023-01-11T11:47:24.305Z,100771.92
2023-01-11T11:52:19.013Z,100762.16
2023-01-11T11:57:18.569Z,100762.15
2023-01-11T12:02:29.791Z,100764.77
2023-01-11T12:07:29.985Z,100767.95
2023-01-11T12:12:26.943Z,100764.94
2023-01-11T12:17:27.073Z,100771.48
2023-01-11T12:22:22.928Z,100763.62
2023-01-11T12:27:34.387Z,100763.57
2023-01-11T12:32:58.933Z,100750.50
2023-01-11T12:38:01.291Z,100746.93
2023-01-11T12:43:49.283Z,100746.00
2023-01-11T12:48:49.919Z,100726.02
2023-01-11T12:54:01.202Z,100712.15
2023-01-11T12:59:09.555Z,100706.33
2023-01-11T13:04:17.181Z,100703.10
2023-01-11T13:09:31.553Z,100699.17
2023-01-11T13:14:27.102Z,100693.66
2023-01-11T13:19:32.980Z,100692.60
2023-01-11T13:24:30.513Z,100695.89
2023-01-11T13:29:26.987Z,100698.38
2023-01-11T13:34:47.800Z,100704.97
2023-01-11T13:39:49.211Z,100711.09
2023-01-11T13:44:51.149Z,100693.36
2023-01-11T13:50:10.862Z,100676.77
2023-01-11T13:55:20.919Z,100668.88
2023-01-11T14:00:28.019Z,100668.63
2023-01-11T14:05:24.367Z,100673.75
2023-01-11T14:10:29.781Z,100669.90
2023-01-11T14:15:46.087Z,100668.40
2023-01-11T14:21:22.904Z,100666.31
2023-01-11T14:26:46.313Z,100657.59
2023-01-11T14:32:12.961Z,100656.19
2023-01-11T14:37:43.999Z,100659.45
2023-01-11T14:42:52.221Z,100651.08
2023-01-11T14:48:06.841Z,100647.09
2023-01-11T14:53:02.461Z,100637.70
2023-01-11T14:58:01.955Z,100632.64
2023-01-11T15:03:08.452Z,100624.34
2023-01-11T15:08:17.109Z,100620.88
2023-01-11T15:13:16.792Z,100613.69
2023-01-11T15:18:24.403Z,100607.98
2023-01-11T15:23:19.113Z,100598.05
2023-01-11T15:28:49.509Z,100592.75
2023-01-11T15:33:51.178Z,100594.31
2023-01-11T15:38:51.009Z,100592.69
2023-01-11T15:44:08.753Z,100594.80
2023-01-11T15:49:07.512Z,100585.56
2023-01-11T15:54:21.501Z,100578.77
2023-01-11T16:00:11.460Z,100572.46
2023-01-11T16:05:16.967Z,100580.91
2023-01-11T16:10:28.711Z,100581.64
2023-01-11T16:15:49.479Z,100580.70
2023-01-11T16:20:47.493Z,100574.64
2023-01-11T16:25:43.533Z,100571.14
2023-01-11T16:30:36.722Z,100575.70
2023-01-11T16:35:30.007Z,100572.20
2023-01-11T16:40:37.284Z,100578.97
2023-01-11T16:45:54.437Z,100573.10
2023-01-11T16:51:01.952Z,100571.52
2023-01-11T16:56:03.251Z,100565.95
2023-01-11T17:01:09.890Z,100556.44
2023-01-11T17:06:08.853Z,100547.58
2023-01-11T17:17:01.564Z,100545.49
2023-01-11T17:22:08.620Z,100537.83
2023-01-11T17:27:03.378Z,100545.45
2023-01-11T17:31:58.629Z,100553.91
2023-01-11T17:36:52.033Z,100559.92
2023-01-11T17:42:02.440Z,100556.35
2023-01-11T17:46:55.253Z,100557.08
2023-01-11T17:51:48.237Z,100556.73
2023-01-11T17:56:42.384Z,100565.54
2023-01-11T18:01:35.279Z,100565.41
2023-01-11T18:06:31.613Z,100557.58
2023-01-11T18:11:28.151Z,100553.52
2023-01-11T18:16:22.588Z,100547.94
2023-01-11T18:21:27.666Z,100545.11
2023-01-11T18:26:40.889Z,100537.27
2023-01-11T18:31:34.067Z,100525.85
2023-01-11T18:36:28.604Z,100519.02
2023-01-11T18:41:35.358Z,100511.33
2023-01-11T18:46:28.867Z,100507.93
2023-01-11T18:51:37.008Z,100497.98
2023-01-11T18:56:29.894Z,100493.66
2023-01-11T19:01:22.842Z,100487.09
2023-01-11T19:06:19.393Z,100481.36
2023-01-11T19:11:14.105Z,100474.33
2023-01-11T19:16:07.945Z,100468.02
2023-01-11T19:21:06.928Z,100465.06
2023-01-11T19:26:01.416Z,100473.18
2023-01-11T19:30:54.351Z,100478.52
2023-01-11T19:35:49.698Z,100481.38
2023-01-11T19:40:42.504Z,100479.57
2023-01-11T19:45:35.472Z,100473.30
2023-01-11T19:50:28.261Z,100478.85
2023-01-11T19:55:21.158Z,100486.06
2023-01-11T20:00:15.432Z,100487.73
2023-01-11T20:05:08.880Z,100483.86
2023-01-11T20:10:01.905Z,100474.70
2023-01-11T20:14:57.711Z,100471.82
2023-01-11T20:19:54.613Z,100463.68
2023-01-11T20:24:48.550Z,100466.23
2023-01-11T20:29:43.863Z,100465.91
2023-01-11T20:34:37.359Z,100459.33
2023-01-11T20:39:30.792Z,100450.39
2023-01-11T20:44:27.523Z,100445.62
2023-01-11T20:49:23.168Z,100438.90
2023-01-11T20:54:40.286Z,100434.64
2023-01-11T20:59:36.615Z,100427.77
2023-01-11T21:04:29.511Z,100423.94
2023-01-11T21:09:22.557Z,100419.08
2023-01-11T21:14:15.525Z,100413.77
2023-01-11T21:19:09.088Z,100412.77
2023-01-11T21:24:04.521Z,100412.52
2023-01-11T21:29:02.684Z,100415.02
2023-01-11T21:33:55.807Z,100408.67
2023-01-11T21:38:49.274Z,100404.61
2023-01-11T21:43:43.572Z,100408.45
2023-01-11T21:48:37.805Z,100405.56
2023-01-11T21:53:32.415Z,100405.57
2023-01-11T21:58:25.255Z,100406.92
2023-01-11T22:03:18.379Z,100405.19
2023-01-11T22:08:12.190Z,100403.06
2023-01-11T22:13:05.302Z,100401.81
2023-01-11T22:17:58.192Z,100402.20
2023-01-11T22:22:51.044Z,100401.06
2023-01-11T22:27:43.988Z,100402.48
2023-01-11T22:32:36.911Z,100393.98
2023-01-11T22:37:29.752Z,100390.94
2023-01-11T22:42:22.573Z,100381.58
2023-01-11T22:47:15.443Z,100378.57
2023-01-11T22:52:08.363Z,100382.39
2023-01-11T22:57:01.283Z,100377.29
2023-01-11T23:01:54.286Z,100385.20
2023-01-11T23:06:47.249Z,100389.02
2023-01-11T23:11:58.771Z,100386.31
2023-01-11T23:16:52.113Z,100382.75
2023-01-11T23:21:46.796Z,100388.60
2023-01-11T23:26:40.824Z,100387.42
2023-01-11T23:31:33.889Z,100391.89
2023-01-11T23:36:32.396Z,100391.56
2023-01-11T23:41:43.986Z,100388.80
2023-01-11T23:46:55.358Z,100388.76
2023-01-11T23:51:48.418Z,100392.01
2023-01-11T23:56:41.811Z,100388.00
